SARL/AOL METAR and TAF weather

Enter ICAO airport designator
Station Type Date Time Source
SARL METAR 2019/12/13 03:00 UTC NOAA

SARL 130300Z 18014KT CAVOK 21/09 Q1013


Station Type Date Time Source
SARL Decoded METAR 2019/12/13 03:00 UTC NOAA

Paso De Los Libres Aerodrome, Argentina (SARL) 29-41S 057-09W 70M
Dec 12, 2019 - 10:00 PM EST / 2019.12.13 0300 UTC
Wind: from the S (180 degrees) at 16 MPH (14 KT):0
Visibility: greater than 7 mile(s):0
Temperature: 69 F (21 C)
Dew Point: 48 F (9 C)
Relative Humidity: 46%
Pressure (altimeter): 29.91 in. Hg (1013 hPa)
ob: SARL 130300Z 18014KT CAVOK 21/09 Q1013
cycle: 3

Station Type Date Time Source
SARL TAF UTC NOAA

Error!

Example: see airport list